Main page
METAR-TAF:

METAR-TAF

Airports :

Toussus-le-Noble Airport

Toussus-le-Noble, France

latitude: 48-46N, longitude: 002-06E, elevation: 164 m

Current weather observation

The report was made 34 minutes ago, at 23:30 UTC
Wind 7 kt from the Northwest
Temperature 4°C
Humidity 93%
Pressure 1010 hPa
Visibility 10 km or more
no clouds below 1500 m and no cumulonimbus

METAR: LFPN 172330Z AUTO 32007KT CAVOK 04/03 Q1010

Time: 01:04 (00:04 UTC)

Forecast

The report was made 7 hours and 4 minutes ago, at 17:00 UTC
Forecast valid from 17 at 18 UTC to 18 at 03 UTC
Wind 7 kt from the North/Northwest
Visibility 10 km or more
no clouds below 1500 m and no cumulonimbus

TAF: LFPN 171700Z 1718/1803 34007KT CAVOK

Weather observations and forecasts of more than 4000 airports (METAR and TAF reports).

The available stations are represented by yellow and red dots on the map.

Hover mouse over dot to see the name of the station.

Then click to see weather observations and forecasts.

To change the map : click on the green buttons with a black cross to zoom in, on the green button with a dash to zoom out, or on the green arrows for adjacent maps.


METAR-TAF: